createdAt,value
2023-05-08T00:00:59.485Z,45.10
2023-05-08T00:03:27.145Z,45.00
2023-05-08T00:05:56.821Z,45.00
2023-05-08T00:08:23.806Z,45.00
2023-05-08T00:10:50.652Z,45.00
2023-05-08T00:13:17.636Z,44.90
2023-05-08T00:15:44.594Z,44.90
2023-05-08T00:18:11.753Z,44.90
2023-05-08T00:20:38.605Z,44.90
2023-05-08T00:23:05.508Z,44.80
2023-05-08T00:25:32.364Z,44.80
2023-05-08T00:28:00.134Z,44.80
2023-05-08T00:30:27.206Z,44.80
2023-05-08T00:32:54.359Z,44.80
2023-05-08T00:35:21.414Z,44.80
2023-05-08T00:37:48.291Z,44.90
2023-05-08T00:40:15.552Z,44.80
2023-05-08T00:42:42.708Z,44.80
2023-05-08T00:45:09.989Z,44.70
2023-05-08T00:47:36.942Z,44.70
2023-05-08T00:50:04.684Z,44.60
2023-05-08T00:52:33.323Z,44.50
2023-05-08T00:55:02.243Z,44.50
2023-05-08T00:57:34.545Z,44.50
2023-05-08T01:00:03.275Z,44.40
2023-05-08T01:02:31.660Z,44.40
2023-05-08T01:04:59.957Z,44.30
2023-05-08T01:07:27.652Z,44.20
2023-05-08T01:09:54.690Z,44.30
2023-05-08T01:12:30.453Z,44.20
2023-05-08T01:15:24.148Z,44.20
2023-05-08T01:18:16.611Z,44.20
2023-05-08T01:20:51.285Z,44.10
2023-05-08T01:23:36.466Z,44.20
2023-05-08T01:26:22.500Z,44.30
2023-05-08T01:28:53.476Z,44.40
2023-05-08T01:31:29.510Z,44.50
2023-05-08T01:34:08.961Z,44.40
2023-05-08T01:36:59.482Z,44.50
2023-05-08T01:39:58.757Z,44.50
2023-05-08T01:42:31.660Z,44.40
2023-05-08T01:45:03.312Z,44.50
2023-05-08T01:47:35.653Z,44.40
2023-05-08T01:50:14.656Z,44.40
2023-05-08T01:52:53.083Z,44.40
2023-05-08T01:55:36.564Z,44.40
2023-05-08T01:58:08.804Z,44.30
2023-05-08T02:00:39.530Z,44.30
2023-05-08T02:03:08.465Z,44.30
2023-05-08T02:05:37.970Z,44.30
2023-05-08T02:08:06.843Z,44.20
2023-05-08T02:10:34.713Z,44.10
2023-05-08T02:13:04.203Z,44.00
2023-05-08T02:15:35.965Z,44.00
2023-05-08T02:18:05.451Z,44.00
2023-05-08T02:20:33.134Z,43.90
2023-05-08T02:23:02.101Z,43.90
2023-05-08T02:25:31.056Z,43.90
2023-05-08T02:27:59.059Z,43.80
2023-05-08T02:30:27.585Z,43.80
2023-05-08T02:32:59.665Z,43.80
2023-05-08T02:35:30.260Z,43.70
2023-05-08T02:37:58.587Z,43.70
2023-05-08T02:40:28.331Z,43.70
2023-05-08T02:42:56.049Z,43.70
2023-05-08T02:45:29.396Z,43.70
2023-05-08T02:48:05.275Z,43.70
2023-05-08T02:50:47.519Z,43.70
2023-05-08T02:53:23.657Z,43.60
2023-05-08T02:55:52.941Z,43.50
2023-05-08T02:58:31.285Z,43.40
2023-05-08T03:01:11.431Z,43.30
2023-05-08T03:03:40.904Z,43.10
2023-05-08T03:06:13.447Z,42.90
2023-05-08T03:08:42.034Z,42.80
2023-05-08T03:11:12.709Z,42.80
2023-05-08T03:13:41.933Z,42.70
2023-05-08T03:16:14.822Z,42.60
2023-05-08T03:19:05.505Z,42.60
2023-05-08T03:21:33.227Z,42.40
2023-05-08T03:24:02.125Z,42.30
2023-05-08T03:26:29.868Z,42.40
2023-05-08T03:28:57.589Z,42.30
2023-05-08T03:31:25.629Z,42.40
2023-05-08T03:33:56.598Z,42.40
2023-05-08T03:36:26.892Z,42.40
2023-05-08T03:38:53.876Z,42.60
2023-05-08T03:41:22.529Z,42.60
2023-05-08T03:43:50.225Z,42.70
2023-05-08T03:46:18.070Z,42.70
2023-05-08T03:48:46.396Z,43.40
2023-05-08T03:51:13.545Z,42.60
2023-05-08T03:53:40.843Z,42.60
2023-05-08T03:56:07.780Z,42.60
2023-05-08T03:59:01.905Z,42.50
2023-05-08T04:01:42.677Z,42.40
2023-05-08T04:04:18.012Z,42.50
2023-05-08T04:07:11.171Z,42.40
2023-05-08T04:10:02.304Z,42.40
2023-05-08T04:12:44.590Z,42.40
2023-05-08T04:15:20.417Z,42.50
2023-05-08T04:17:55.307Z,42.50
2023-05-08T04:20:26.706Z,42.50
2023-05-08T04:22:55.942Z,42.50
2023-05-08T04:25:22.870Z,42.60
2023-05-08T04:27:51.420Z,42.60
2023-05-08T04:30:18.697Z,42.60
2023-05-08T04:32:47.072Z,42.60
2023-05-08T04:35:14.837Z,42.60
2023-05-08T04:37:45.091Z,42.50
2023-05-08T04:40:12.318Z,42.50
2023-05-08T04:42:42.778Z,42.40
2023-05-08T04:45:11.242Z,42.30
2023-05-08T04:47:38.302Z,42.20
2023-05-08T04:50:05.963Z,42.10
2023-05-08T04:52:32.818Z,42.00
2023-05-08T04:54:59.972Z,42.00
2023-05-08T04:57:26.813Z,42.00
2023-05-08T04:59:53.659Z,42.00
2023-05-08T05:02:20.548Z,42.00
2023-05-08T05:04:47.531Z,42.00
2023-05-08T05:07:14.361Z,42.00
2023-05-08T05:09:41.217Z,42.00
2023-05-08T05:12:08.175Z,42.00
2023-05-08T05:14:35.158Z,42.00
2023-05-08T05:17:02.215Z,42.00
2023-05-08T05:19:29.467Z,41.90
2023-05-08T05:21:56.806Z,41.90
2023-05-08T05:24:23.616Z,41.90
2023-05-08T05:26:50.453Z,41.80
2023-05-08T05:29:17.557Z,41.80
2023-05-08T05:31:44.613Z,41.90
2023-05-08T05:34:11.634Z,41.80
2023-05-08T05:36:38.506Z,41.80
2023-05-08T05:39:05.441Z,41.70
2023-05-08T05:41:32.850Z,41.70
2023-05-08T05:43:59.800Z,41.80
2023-05-08T05:46:32.260Z,41.80
2023-05-08T05:48:59.537Z,41.80
2023-05-08T05:51:27.741Z,41.90
2023-05-08T05:53:54.646Z,42.00
2023-05-08T05:56:23.210Z,42.00
2023-05-08T05:58:50.088Z,42.00
2023-05-08T06:01:17.187Z,42.10
2023-05-08T06:03:44.771Z,42.10
2023-05-08T06:06:12.458Z,42.00
2023-05-08T06:08:39.398Z,42.00
2023-05-08T06:11:06.541Z,41.90
2023-05-08T06:13:33.531Z,41.80
2023-05-08T06:16:00.557Z,41.90
2023-05-08T06:18:27.526Z,41.80
2023-05-08T06:20:58.309Z,41.80
2023-05-08T06:23:25.723Z,41.80
2023-05-08T06:25:53.565Z,41.80
2023-05-08T06:28:22.498Z,41.90
2023-05-08T06:30:49.465Z,41.80
2023-05-08T06:33:16.436Z,41.90
2023-05-08T06:35:47.585Z,42.00
2023-05-08T06:38:14.998Z,42.10
2023-05-08T06:40:45.563Z,42.20
2023-05-08T06:43:13.945Z,42.20
2023-05-08T06:45:40.857Z,43.00
2023-05-08T06:48:08.026Z,42.30
2023-05-08T06:50:38.131Z,42.30
2023-05-08T06:53:05.435Z,42.30
2023-05-08T06:55:32.237Z,42.20
2023-05-08T06:57:59.133Z,42.10
2023-05-08T07:00:26.208Z,42.00
2023-05-08T07:02:53.096Z,42.00
2023-05-08T07:05:20.433Z,42.00
2023-05-08T07:07:47.517Z,41.90
2023-05-08T07:10:14.350Z,41.80
2023-05-08T07:12:41.338Z,41.90
2023-05-08T07:15:18.191Z,41.90
2023-05-08T07:17:51.504Z,42.00
2023-05-08T07:20:18.911Z,42.10
2023-05-08T07:22:46.531Z,42.20
2023-05-08T07:25:14.105Z,42.30
2023-05-08T07:27:41.232Z,42.30
2023-05-08T07:30:08.746Z,43.10
2023-05-08T07:32:35.848Z,42.50
2023-05-08T07:35:03.863Z,42.70
2023-05-08T07:37:31.343Z,42.80
2023-05-08T07:39:58.213Z,42.80
2023-05-08T07:42:25.617Z,43.00
2023-05-08T07:44:55.241Z,42.90
2023-05-08T07:47:22.770Z,42.90
2023-05-08T07:49:49.795Z,42.90
2023-05-08T07:52:16.791Z,42.80
2023-05-08T07:54:43.958Z,42.80
2023-05-08T07:57:11.627Z,42.90
2023-05-08T07:59:38.694Z,42.80
2023-05-08T08:02:05.622Z,42.90
2023-05-08T08:04:32.619Z,42.90
2023-05-08T08:07:00.770Z,43.00
2023-05-08T08:09:27.742Z,43.00
2023-05-08T08:11:54.610Z,43.00
2023-05-08T08:14:21.446Z,43.10
2023-05-08T08:16:48.345Z,43.10
2023-05-08T08:19:15.222Z,43.00
2023-05-08T08:21:43.821Z,43.10
2023-05-08T08:24:10.902Z,43.00
2023-05-08T08:26:37.797Z,43.00
2023-05-08T08:29:04.798Z,42.90
2023-05-08T08:31:31.697Z,42.90
2023-05-08T08:33:58.595Z,42.90
2023-05-08T08:36:25.494Z,43.00
2023-05-08T08:38:53.061Z,43.10
2023-05-08T08:41:19.907Z,43.10
2023-05-08T08:43:46.774Z,43.10
2023-05-08T08:46:15.445Z,43.10
2023-05-08T08:48:47.380Z,43.10
2023-05-08T08:51:35.928Z,43.00
2023-05-08T08:54:13.770Z,43.00
2023-05-08T08:56:42.981Z,42.90
2023-05-08T08:59:12.391Z,42.80
2023-05-08T09:01:41.335Z,42.70
2023-05-08T09:04:09.201Z,42.60
2023-05-08T09:06:38.479Z,42.60
2023-05-08T09:09:05.827Z,42.60
2023-05-08T09:11:32.958Z,42.50
2023-05-08T09:13:59.955Z,42.50
2023-05-08T09:16:28.596Z,42.40
2023-05-08T09:18:55.884Z,42.20
2023-05-08T09:21:23.318Z,42.00
2023-05-08T09:24:04.117Z,42.00
2023-05-08T09:26:41.315Z,42.00
2023-05-08T09:29:12.815Z,41.80
2023-05-08T09:31:44.402Z,41.80
2023-05-08T09:34:28.959Z,41.70
2023-05-08T09:36:56.900Z,41.60
2023-05-08T09:39:25.525Z,41.60
2023-05-08T09:42:05.981Z,41.50
2023-05-08T09:44:55.600Z,41.50
2023-05-08T09:47:24.140Z,41.40
2023-05-08T09:50:05.376Z,41.40
2023-05-08T09:52:33.426Z,41.40
2023-05-08T09:55:09.312Z,41.30
2023-05-08T09:57:39.641Z,41.10
2023-05-08T10:00:10.440Z,41.10
2023-05-08T10:02:39.985Z,40.90
2023-05-08T10:05:30.064Z,41.00
2023-05-08T10:07:59.135Z,40.90
2023-05-08T10:10:28.732Z,40.90
2023-05-08T10:12:58.772Z,40.90
2023-05-08T10:15:33.014Z,41.00
2023-05-08T10:18:03.439Z,41.00
2023-05-08T10:20:31.247Z,41.00
2023-05-08T10:22:58.722Z,40.90
2023-05-08T10:25:26.847Z,41.00
2023-05-08T10:28:02.205Z,41.00
2023-05-08T10:30:44.636Z,41.00
2023-05-08T10:33:15.330Z,41.10
2023-05-08T10:35:42.980Z,41.10
2023-05-08T10:38:10.291Z,41.20
2023-05-08T10:40:38.173Z,41.30
2023-05-08T10:43:07.304Z,41.40
2023-05-08T10:45:34.641Z,41.50
2023-05-08T10:48:09.154Z,41.70
2023-05-08T10:50:44.336Z,41.70
2023-05-08T10:53:37.054Z,41.80
2023-05-08T10:56:04.375Z,41.80
2023-05-08T10:58:33.459Z,42.00
2023-05-08T11:01:00.706Z,42.00
2023-05-08T11:03:32.769Z,42.00
2023-05-08T11:06:01.411Z,42.00
2023-05-08T11:08:30.904Z,42.10
2023-05-08T11:11:01.012Z,42.10
2023-05-08T11:13:32.743Z,42.20
2023-05-08T11:15:59.793Z,42.10
2023-05-08T11:18:32.532Z,42.20
2023-05-08T11:21:19.899Z,42.20
2023-05-08T11:23:57.925Z,42.20
2023-05-08T11:26:40.353Z,42.20
2023-05-08T11:29:17.510Z,42.10
2023-05-08T11:31:51.387Z,42.20
2023-05-08T11:34:43.329Z,42.20
2023-05-08T11:37:20.751Z,42.20
2023-05-08T11:39:48.702Z,42.20
2023-05-08T11:42:27.700Z,42.20
2023-05-08T11:45:06.658Z,42.20
2023-05-08T11:47:41.442Z,42.20
2023-05-08T11:50:10.722Z,42.20
2023-05-08T11:52:39.290Z,42.20
2023-05-08T11:55:08.729Z,42.20
2023-05-08T11:57:35.867Z,42.20
2023-05-08T12:00:11.396Z,42.20
2023-05-08T12:02:40.664Z,42.20
2023-05-08T12:05:09.221Z,42.10
2023-05-08T12:07:46.860Z,42.20
2023-05-08T12:10:17.677Z,42.30
2023-05-08T12:12:45.443Z,42.40
2023-05-08T12:15:14.466Z,42.40
2023-05-08T12:17:42.579Z,42.50
2023-05-08T12:20:12.960Z,42.50
2023-05-08T12:22:41.530Z,42.60
2023-05-08T12:25:10.653Z,42.60
2023-05-08T12:27:38.230Z,42.50
2023-05-08T12:30:10.704Z,42.60
2023-05-08T12:32:43.410Z,42.60
2023-05-08T12:35:11.981Z,42.60
2023-05-08T12:37:39.567Z,42.70
2023-05-08T12:40:08.025Z,42.70
2023-05-08T12:42:48.627Z,42.70
2023-05-08T12:45:28.185Z,42.80
2023-05-08T12:48:09.841Z,42.80
2023-05-08T12:50:42.465Z,42.90
2023-05-08T12:53:11.263Z,42.80
2023-05-08T12:55:39.846Z,42.70
2023-05-08T12:58:15.460Z,42.70
2023-05-08T13:00:47.314Z,42.50
2023-05-08T13:03:25.761Z,42.50
2023-05-08T13:05:54.292Z,42.50
2023-05-08T13:08:29.083Z,42.60
2023-05-08T13:10:56.550Z,42.70
2023-05-08T13:13:26.088Z,42.60
2023-05-08T13:15:55.438Z,42.60
2023-05-08T13:18:26.397Z,42.70
2023-05-08T13:20:54.234Z,42.80
2023-05-08T13:23:23.439Z,42.90
2023-05-08T13:25:51.269Z,42.80
2023-05-08T13:28:18.190Z,42.80
2023-05-08T13:30:45.230Z,42.80
2023-05-08T13:33:12.120Z,42.70
2023-05-08T13:35:39.255Z,42.70
2023-05-08T13:38:06.144Z,42.80
2023-05-08T13:40:33.222Z,42.80
2023-05-08T13:43:00.172Z,42.80
2023-05-08T13:45:27.200Z,42.70
2023-05-08T13:47:54.726Z,42.70
2023-05-08T13:50:22.188Z,42.70
2023-05-08T13:52:50.501Z,42.70
2023-05-08T13:55:21.058Z,42.70
2023-05-08T13:57:48.588Z,42.80
2023-05-08T14:00:15.990Z,42.80
2023-05-08T14:02:43.087Z,42.70
2023-05-08T14:05:10.198Z,42.60
2023-05-08T14:07:37.305Z,42.60
2023-05-08T14:10:07.374Z,42.50
2023-05-08T14:12:37.112Z,42.40
2023-05-08T14:15:05.298Z,42.40
2023-05-08T14:17:32.695Z,42.40
2023-05-08T14:20:00.178Z,42.50
2023-05-08T14:22:27.121Z,42.50
2023-05-08T14:24:54.109Z,42.60
2023-05-08T14:27:21.335Z,42.60
2023-05-08T14:29:48.258Z,42.60
2023-05-08T14:32:15.101Z,42.70
2023-05-08T14:34:41.981Z,42.70
2023-05-08T14:37:08.924Z,43.50
2023-05-08T14:39:35.825Z,42.70
2023-05-08T14:44:33.004Z,42.70
2023-05-08T14:46:59.866Z,42.60
2023-05-08T14:49:36.750Z,42.50
2023-05-08T14:52:06.100Z,42.60
2023-05-08T14:54:33.608Z,42.50
2023-05-08T14:57:00.707Z,42.60
2023-05-08T14:59:27.598Z,42.70
2023-05-08T15:01:54.706Z,43.40
2023-05-08T15:04:21.811Z,42.80
2023-05-08T15:06:48.759Z,42.80
2023-05-08T15:09:16.720Z,42.80
2023-05-08T15:11:44.191Z,42.90
2023-05-08T15:14:11.303Z,43.00
2023-05-08T15:16:38.431Z,43.00
2023-05-08T15:19:05.507Z,43.00
2023-05-08T15:21:32.477Z,42.90
2023-05-08T15:23:59.392Z,42.90
2023-05-08T15:26:26.434Z,42.90
2023-05-08T15:28:53.313Z,43.00
2023-05-08T15:31:20.206Z,42.90
2023-05-08T15:33:48.261Z,42.90
2023-05-08T15:36:15.493Z,42.90
2023-05-08T15:38:42.839Z,42.90
2023-05-08T15:41:14.623Z,42.90
2023-05-08T15:43:42.515Z,42.90
2023-05-08T15:46:09.513Z,42.90
2023-05-08T15:48:36.564Z,43.70
2023-05-08T15:51:03.538Z,42.90
2023-05-08T15:53:30.563Z,42.90
2023-05-08T15:55:57.630Z,43.00
2023-05-08T15:58:25.011Z,42.90
2023-05-08T16:00:52.313Z,42.90
2023-05-08T16:03:19.538Z,42.90
2023-05-08T16:05:46.569Z,42.90
2023-05-08T16:08:13.860Z,42.90
2023-05-08T16:10:41.914Z,42.90
2023-05-08T16:13:09.287Z,43.10
2023-05-08T16:15:36.688Z,43.10
2023-05-08T16:18:03.817Z,43.10
2023-05-08T16:20:32.033Z,43.10
2023-05-08T16:23:00.347Z,43.20
2023-05-08T16:25:27.276Z,43.30
2023-05-08T16:27:54.092Z,43.20
2023-05-08T16:30:21.007Z,43.30
2023-05-08T16:32:48.056Z,43.30
2023-05-08T16:35:15.700Z,43.30
2023-05-08T16:37:43.203Z,43.30
2023-05-08T16:40:11.070Z,43.20
2023-05-08T16:42:38.390Z,43.30
2023-05-08T16:45:05.746Z,43.20
2023-05-08T16:47:33.397Z,43.20
2023-05-08T16:50:00.583Z,43.20
2023-05-08T16:52:27.631Z,43.10
2023-05-08T16:54:54.482Z,42.90
2023-05-08T16:57:21.458Z,42.80
2023-05-08T16:59:48.377Z,42.70
2023-05-08T17:02:19.169Z,42.60
2023-05-08T17:04:47.920Z,42.50
2023-05-08T17:07:15.578Z,42.30
2023-05-08T17:09:42.816Z,42.30
2023-05-08T17:12:09.834Z,42.20
2023-05-08T17:14:39.385Z,42.20
2023-05-08T17:17:07.031Z,42.10
2023-05-08T17:19:34.597Z,42.10
2023-05-08T17:22:02.338Z,41.90
2023-05-08T17:24:32.623Z,41.80
2023-05-08T17:26:59.780Z,41.70
2023-05-08T17:29:26.775Z,41.70
2023-05-08T17:31:53.653Z,41.70
2023-05-08T17:34:21.006Z,41.70
2023-05-08T17:36:48.072Z,41.60
2023-05-08T17:39:15.053Z,41.40
2023-05-08T17:41:41.859Z,41.30
2023-05-08T17:44:08.680Z,41.20
2023-05-08T17:46:35.502Z,41.00
2023-05-08T17:49:02.387Z,40.80
2023-05-08T17:51:29.384Z,40.50
2023-05-08T17:53:56.670Z,40.30
2023-05-08T17:56:23.734Z,40.10
2023-05-08T17:58:52.358Z,39.90
2023-05-08T18:01:20.226Z,39.70
2023-05-08T18:03:50.994Z,39.50
2023-05-08T18:06:18.637Z,39.40
2023-05-08T18:08:46.829Z,39.40
2023-05-08T18:11:22.367Z,39.20
2023-05-08T18:13:50.185Z,39.00
2023-05-08T18:16:19.114Z,38.90
2023-05-08T18:18:46.109Z,38.80
2023-05-08T18:21:13.260Z,38.90
2023-05-08T18:23:40.233Z,39.00
2023-05-08T18:26:07.513Z,39.00
2023-05-08T18:28:36.098Z,39.00
2023-05-08T18:31:03.478Z,39.00
2023-05-08T18:33:30.339Z,39.00
2023-05-08T18:35:57.337Z,39.10
2023-05-08T18:38:24.253Z,39.10
2023-05-08T18:40:51.159Z,39.00
2023-05-08T18:43:18.032Z,39.10
2023-05-08T18:45:44.972Z,39.20
2023-05-08T18:48:11.922Z,39.20
2023-05-08T18:50:38.839Z,39.20
2023-05-08T18:53:06.460Z,39.30
2023-05-08T18:55:33.431Z,39.50
2023-05-08T18:58:00.259Z,40.30
2023-05-08T19:00:27.493Z,39.60
2023-05-08T19:02:54.549Z,39.90
2023-05-08T19:05:21.755Z,40.00
2023-05-08T19:07:48.664Z,40.30
2023-05-08T19:10:15.937Z,40.40
2023-05-08T19:12:43.675Z,40.50
2023-05-08T19:15:13.618Z,40.50
2023-05-08T19:17:41.273Z,40.60
2023-05-08T19:20:08.668Z,40.70
2023-05-08T19:22:36.069Z,40.80
2023-05-08T19:25:03.587Z,40.90
2023-05-08T19:27:31.994Z,40.90
2023-05-08T19:29:59.076Z,41.00
2023-05-08T19:32:26.106Z,41.00
2023-05-08T19:34:55.368Z,41.00
2023-05-08T19:37:22.175Z,41.00
2023-05-08T19:39:49.038Z,40.90
2023-05-08T19:42:15.933Z,41.00
2023-05-08T19:44:42.811Z,41.00
2023-05-08T19:47:09.631Z,41.00
2023-05-08T19:49:36.524Z,41.10
2023-05-08T19:52:03.440Z,41.20
2023-05-08T19:54:30.910Z,41.30
2023-05-08T19:56:57.871Z,41.30
2023-05-08T19:59:24.785Z,41.30
2023-05-08T20:01:51.778Z,41.40
2023-05-08T20:04:18.642Z,41.50
2023-05-08T20:06:45.545Z,41.50
2023-05-08T20:09:12.444Z,41.60
2023-05-08T20:11:39.347Z,41.80
2023-05-08T20:14:06.295Z,41.90
2023-05-08T20:16:33.346Z,42.00
2023-05-08T20:19:01.581Z,42.00
2023-05-08T20:21:33.801Z,42.20
2023-05-08T20:24:01.206Z,42.20
2023-05-08T20:26:29.447Z,42.40
2023-05-08T20:28:57.305Z,42.40
2023-05-08T20:31:27.508Z,42.50
2023-05-08T20:33:54.597Z,42.60
2023-05-08T20:36:21.512Z,42.60
2023-05-08T20:38:48.528Z,42.50
2023-05-08T20:41:15.458Z,42.50
2023-05-08T20:43:42.327Z,42.50
2023-05-08T20:46:10.067Z,42.40
2023-05-08T20:48:38.394Z,42.50
2023-05-08T20:51:05.491Z,43.20
2023-05-08T20:53:32.785Z,42.50
2023-05-08T20:56:03.500Z,42.60
2023-05-08T20:58:30.549Z,42.60
2023-05-08T21:00:57.588Z,42.50
2023-05-08T21:03:24.544Z,42.60
2023-05-08T21:05:51.834Z,42.60
2023-05-08T21:08:23.102Z,42.60
2023-05-08T21:10:51.827Z,42.60
2023-05-08T21:13:19.227Z,42.60
2023-05-08T21:15:50.330Z,42.60
2023-05-08T21:18:17.610Z,42.50
2023-05-08T21:20:50.354Z,42.40
2023-05-08T21:23:20.647Z,42.40
2023-05-08T21:25:48.568Z,42.40
2023-05-08T21:28:16.426Z,42.40
2023-05-08T21:30:43.786Z,42.40
2023-05-08T21:33:11.837Z,42.50
2023-05-08T21:35:38.668Z,42.70
2023-05-08T21:38:05.816Z,42.90
2023-05-08T21:40:32.719Z,43.00
2023-05-08T21:43:00.137Z,43.20
2023-05-08T21:45:33.618Z,43.30
2023-05-08T21:48:00.757Z,43.40
2023-05-08T21:50:30.672Z,43.50
2023-05-08T21:52:57.827Z,43.50
2023-05-08T21:55:24.900Z,43.60
2023-05-08T21:57:52.023Z,43.60
2023-05-08T22:00:20.068Z,43.50
2023-05-08T22:02:47.120Z,43.50
2023-05-08T22:05:14.574Z,43.50
2023-05-08T22:07:41.689Z,43.50
2023-05-08T22:10:10.353Z,43.50
2023-05-08T22:12:37.367Z,43.50
2023-05-08T22:15:14.981Z,44.30
2023-05-08T22:17:50.530Z,43.70
2023-05-08T22:20:18.113Z,44.40
2023-05-08T22:22:45.295Z,43.70
2023-05-08T22:25:12.399Z,43.80
2023-05-08T22:27:39.564Z,43.80
2023-05-08T22:30:07.295Z,43.90
2023-05-08T22:32:34.773Z,43.90
2023-05-08T22:35:01.620Z,43.90
2023-05-08T22:37:29.885Z,43.90
2023-05-08T22:39:56.795Z,43.90
2023-05-08T22:42:24.563Z,43.90
2023-05-08T22:44:51.411Z,43.90
2023-05-08T22:47:18.339Z,43.90
2023-05-08T22:49:45.130Z,43.90
2023-05-08T22:52:12.366Z,43.90
2023-05-08T22:54:39.184Z,43.90
2023-05-08T22:57:06.014Z,43.90
2023-05-08T22:59:32.947Z,43.90
2023-05-08T23:01:59.755Z,43.90
2023-05-08T23:04:26.605Z,44.00
2023-05-08T23:06:53.549Z,44.00
2023-05-08T23:09:20.347Z,44.10
2023-05-08T23:11:47.430Z,44.10
2023-05-08T23:14:14.329Z,44.10
2023-05-08T23:16:41.224Z,44.10
2023-05-08T23:19:09.956Z,44.20
2023-05-08T23:21:37.049Z,45.00
2023-05-08T23:24:04.885Z,44.30
2023-05-08T23:26:31.799Z,44.40
2023-05-08T23:28:58.893Z,44.30
2023-05-08T23:31:25.749Z,44.30
2023-05-08T23:33:52.747Z,44.30
2023-05-08T23:36:19.647Z,44.30
2023-05-08T23:38:46.587Z,44.40
2023-05-08T23:41:13.845Z,44.30
2023-05-08T23:43:40.998Z,44.30
2023-05-08T23:46:08.105Z,44.40
2023-05-08T23:48:34.985Z,44.30
2023-05-08T23:51:01.819Z,45.00
2023-05-08T23:53:28.858Z,44.30
2023-05-08T23:55:56.245Z,44.30
2023-05-08T23:58:23.054Z,44.30
